Time;durP1;ratioP1;P1;durP2;ratioP2;P2;SDS_P1;SDS_P2;PMS_P1;PMS_P2;Temp;Humidity;BMP_temperature;BMP_pressure;BME280_temperature;BME280_humidity;BME280_pressure;Samples;Min_cycle;Max_cycle;Signal;HPM_P1;HPM_P2
2022/02/23 00:00:55;;;;;;;20.02;9.80;;;;;;;;;;5114087;28;20030;-76
2022/02/23 00:03:21;;;;;;;19.10;10.45;;;;;;;;;;5113804;28;20098;-76
2022/02/23 00:05:47;;;;;;;21.60;10.55;;;;;;;;;;5113662;28;20016;-76
2022/02/23 00:08:13;;;;;;;20.05;10.75;;;;;;;;;;5112459;28;20139;-76
2022/02/23 00:10:39;;;;;;;16.60;9.25;;;;;;;;;;5113659;28;20019;-76
2022/02/23 00:13:05;;;;;;;17.40;9.90;;;;;;;;;;5113160;28;20051;-79
2022/02/23 00:15:31;;;;;;;17.65;9.60;;;;;;;;;;5112111;28;20023;-76
2022/02/23 00:17:57;;;;;;;18.95;9.38;;;;;;;;;;5112866;28;20039;-79
2022/02/23 00:20:23;;;;;;;12.65;7.85;;;;;;;;;;5112068;28;20016;-76
2022/02/23 00:22:49;;;;;;;20.42;8.55;;;;;;;;;;5113364;28;20102;-76
2022/02/23 00:25:16;;;;;;;15.23;7.75;;;;;;;;;;5112160;28;20068;-76
2022/02/23 00:27:43;;;;;;;19.10;10.25;;;;;;;;;;5111873;28;20031;-76
2022/02/23 00:30:09;;;;;;;22.77;12.05;;;;;;;;;;5113201;28;20051;-77
2022/02/23 00:32:35;;;;;;;18.23;9.80;;;;;;;;;;5112825;28;20023;-76
2022/02/23 00:35:02;;;;;;;20.05;10.10;;;;;;;;;;5113401;28;20043;-76
2022/02/23 00:37:28;;;;;;;23.85;11.55;;;;;;;;;;5113730;28;20026;-76
2022/02/23 00:39:55;;;;;;;14.05;8.82;;;;;;;;;;5113014;28;20082;-76
2022/02/23 00:42:21;;;;;;;15.07;9.75;;;;;;;;;;5111573;28;20024;-76
2022/02/23 00:44:47;;;;;;;18.73;9.18;;;;;;;;;;5111350;28;20019;-76
2022/02/23 00:47:13;;;;;;;18.10;10.45;;;;;;;;;;5112964;28;20019;-76
2022/02/23 00:49:39;;;;;;;22.08;10.98;;;;;;;;;;5112728;28;20050;-76
2022/02/23 00:52:06;;;;;;;25.08;14.57;;;;;;;;;;5112881;28;20020;-75
2022/02/23 00:54:35;;;;;;;27.08;15.23;;;;;;;;;;5113126;28;20020;-75
2022/02/23 00:57:01;;;;;;;22.17;12.27;;;;;;;;;;5112514;28;20031;-76
2022/02/23 00:59:28;;;;;;;25.38;14.68;;;;;;;;;;5112653;28;20165;-76
2022/02/23 01:01:54;;;;;;;25.20;13.75;;;;;;;;;;5111380;28;20442;-76
2022/02/23 01:04:20;;;;;;;32.03;17.27;;;;;;;;;;5111423;28;20057;-77
2022/02/23 01:06:46;;;;;;;24.27;12.52;;;;;;;;;;5110569;28;20535;-76
2022/02/23 01:09:12;;;;;;;24.98;13.32;;;;;;;;;;5112177;28;20028;-76
2022/02/23 01:11:40;;;;;;;24.85;15.23;;;;;;;;;;5112591;28;20127;-76
2022/02/23 01:14:06;;;;;;;34.70;18.98;;;;;;;;;;5112460;28;20065;-77
2022/02/23 01:16:32;;;;;;;34.67;19.45;;;;;;;;;;5112381;28;20048;-76
2022/02/23 01:18:58;;;;;;;31.55;15.48;;;;;;;;;;5111165;28;20026;-77
2022/02/23 01:21:24;;;;;;;34.95;17.63;;;;;;;;;;5103577;28;20020;-77
2022/02/23 01:23:50;;;;;;;33.60;18.88;;;;;;;;;;5091715;28;20496;-77
2022/02/23 01:26:17;;;;;;;40.53;21.67;;;;;;;;;;5091981;28;20020;-77
2022/02/23 01:28:43;;;;;;;26.73;16.02;;;;;;;;;;5091876;28;20056;-77
2022/02/23 01:31:09;;;;;;;24.92;13.77;;;;;;;;;;5091928;28;20020;-77
2022/02/23 01:33:35;;;;;;;28.58;14.77;;;;;;;;;;5092086;28;20020;-77
2022/02/23 01:36:01;;;;;;;22.85;13.23;;;;;;;;;;5091900;28;20099;-77
2022/02/23 01:38:27;;;;;;;24.25;11.05;;;;;;;;;;5091599;28;20020;-76
2022/02/23 01:40:54;;;;;;;28.67;14.52;;;;;;;;;;5091830;28;20048;-76
2022/02/23 01:43:20;;;;;;;23.08;11.07;;;;;;;;;;5111785;28;20026;-76
2022/02/23 01:45:46;;;;;;;27.30;10.98;;;;;;;;;;5111759;28;20542;-76
2022/02/23 01:48:12;;;;;;;21.05;11.25;;;;;;;;;;5111748;28;20058;-76
2022/02/23 01:50:38;;;;;;;21.00;12.32;;;;;;;;;;5111980;28;20016;-77
2022/02/23 01:53:05;;;;;;;19.60;10.05;;;;;;;;;;5111768;28;20047;-76
2022/02/23 01:55:31;;;;;;;21.63;9.57;;;;;;;;;;5112058;28;20462;-76
2022/02/23 01:57:58;;;;;;;8.73;6.10;;;;;;;;;;5110601;28;20020;-76
2022/02/23 02:00:24;;;;;;;15.80;6.65;;;;;;;;;;5112138;28;20121;-76
2022/02/23 02:02:50;;;;;;;22.13;9.30;;;;;;;;;;5111665;28;20057;-76
2022/02/23 02:05:16;;;;;;;21.90;9.55;;;;;;;;;;5110654;28;20024;-76
2022/02/23 02:07:43;;;;;;;14.40;7.18;;;;;;;;;;5111818;28;20028;-76
2022/02/23 02:10:09;;;;;;;16.10;8.10;;;;;;;;;;5111697;28;20094;-76
2022/02/23 02:12:36;;;;;;;17.75;8.32;;;;;;;;;;5110438;28;20023;-76
2022/02/23 02:15:04;;;;;;;16.55;8.40;;;;;;;;;;5111819;28;20012;-76
2022/02/23 02:17:30;;;;;;;20.75;8.45;;;;;;;;;;5113428;28;20054;-76
2022/02/23 02:19:56;;;;;;;18.50;7.25;;;;;;;;;;5115648;28;20102;-76
2022/02/23 02:22:27;;;;;;;13.18;6.57;;;;;;;;;;5115700;28;20015;-76
2022/02/23 02:24:55;;;;;;;12.48;6.28;;;;;;;;;;5115607;28;20020;-76
2022/02/23 02:27:21;;;;;;;15.98;7.82;;;;;;;;;;5115258;28;20064;-76
2022/02/23 02:29:47;;;;;;;15.77;8.40;;;;;;;;;;5115549;28;20059;-76
2022/02/23 02:32:14;;;;;;;13.15;7.32;;;;;;;;;;5115617;28;20095;-79
2022/02/23 02:34:40;;;;;;;11.85;7.20;;;;;;;;;;5114137;28;20046;-76
2022/02/23 02:37:06;;;;;;;19.85;10.55;;;;;;;;;;5115140;28;20020;-77
2022/02/23 02:39:34;;;;;;;18.80;9.45;;;;;;;;;;5113964;28;20110;-76
2022/02/23 02:42:01;;;;;;;19.23;9.85;;;;;;;;;;5115089;28;20055;-76
2022/02/23 02:44:27;;;;;;;18.08;6.57;;;;;;;;;;5115330;28;20058;-76
2022/02/23 02:46:53;;;;;;;16.80;6.90;;;;;;;;;;5115307;28;20023;-76
2022/02/23 02:49:20;;;;;;;12.27;5.25;;;;;;;;;;5115130;28;20037;-77
2022/02/23 02:51:47;;;;;;;10.52;4.60;;;;;;;;;;5115103;28;20020;-76
2022/02/23 02:54:13;;;;;;;10.65;5.30;;;;;;;;;;5115484;28;20020;-76
2022/02/23 02:56:40;;;;;;;15.65;5.57;;;;;;;;;;5113732;28;20052;-76
2022/02/23 02:59:06;;;;;;;15.00;5.57;;;;;;;;;;5114988;28;20092;-76
2022/02/23 03:01:33;;;;;;;14.18;6.18;;;;;;;;;;5114834;28;20019;-76
2022/02/23 03:03:59;;;;;;;20.00;5.32;;;;;;;;;;5114999;28;20110;-76
2022/02/23 03:06:25;;;;;;;11.82;5.35;;;;;;;;;;5114518;28;20090;-77
2022/02/23 03:08:52;;;;;;;10.32;5.35;;;;;;;;;;5113392;28;20100;-76
2022/02/23 03:11:18;;;;;;;9.00;4.60;;;;;;;;;;5113429;28;20030;-76
2022/02/23 03:13:44;;;;;;;16.90;7.10;;;;;;;;;;5113339;28;20481;-75
2022/02/23 03:16:11;;;;;;;13.07;5.18;;;;;;;;;;5114623;28;20047;-76
2022/02/23 03:18:37;;;;;;;15.55;7.35;;;;;;;;;;5114583;28;20026;-76
2022/02/23 03:21:03;;;;;;;11.10;5.63;;;;;;;;;;5114573;28;20019;-76
2022/02/23 03:23:29;;;;;;;11.90;5.82;;;;;;;;;;5114215;28;20062;-76
2022/02/23 03:25:56;;;;;;;18.77;8.30;;;;;;;;;;5113198;28;20034;-76
2022/02/23 03:28:22;;;;;;;14.45;8.82;;;;;;;;;;5113763;28;20035;-76
2022/02/23 03:30:48;;;;;;;16.73;8.20;;;;;;;;;;5114000;28;20020;-76
2022/02/23 03:33:15;;;;;;;13.13;5.75;;;;;;;;;;5114329;28;20065;-76
2022/02/23 03:35:42;;;;;;;19.83;7.78;;;;;;;;;;5114262;28;20023;-76
2022/02/23 03:38:08;;;;;;;19.30;8.35;;;;;;;;;;5114230;28;20416;-76
2022/02/23 03:40:35;;;;;;;22.00;10.18;;;;;;;;;;5114180;28;20020;-78
2022/02/23 03:43:01;;;;;;;15.68;7.28;;;;;;;;;;5113837;28;20393;-76
2022/02/23 03:45:27;;;;;;;17.70;8.63;;;;;;;;;;5114134;28;20020;-76
2022/02/23 03:47:53;;;;;;;16.63;8.20;;;;;;;;;;5114204;28;20043;-78
2022/02/23 03:50:20;;;;;;;19.63;8.20;;;;;;;;;;5112702;28;20024;-76
2022/02/23 03:52:46;;;;;;;17.38;8.07;;;;;;;;;;5112628;28;20412;-77
2022/02/23 03:55:13;;;;;;;20.45;7.07;;;;;;;;;;5113926;28;20019;-76
2022/02/23 03:57:39;;;;;;;17.33;8.43;;;;;;;;;;5112528;28;20019;-76
2022/02/23 04:00:06;;;;;;;16.50;7.25;;;;;;;;;;5114163;28;20055;-76
2022/02/23 04:02:32;;;;;;;21.20;8.55;;;;;;;;;;5112441;28;20026;-76
2022/02/23 04:04:58;;;;;;;21.00;8.88;;;;;;;;;;5112433;28;20020;-76
2022/02/23 04:07:24;;;;;;;25.15;10.70;;;;;;;;;;5113271;28;20385;-76
2022/02/23 04:09:50;;;;;;;22.88;11.25;;;;;;;;;;5113388;28;20024;-76
2022/02/23 04:12:17;;;;;;;24.83;13.85;;;77.70;2227.20;;;;;;5113681;28;20099;-76
2022/02/23 04:14:43;;;;;;;38.15;16.55;;;77.50;2227.20;;;;;;5113432;28;20471;-75
2022/02/23 04:17:10;;;;;;;28.05;14.57;;;;;;;;;;5113491;28;20048;-75
2022/02/23 04:19:36;;;;;;;30.38;14.02;;;;;;;;;;5113466;28;20020;-75
2022/02/23 04:22:03;;;;;;;34.35;12.82;;;77.50;2227.20;;;;;;5113089;28;20019;-77
2022/02/23 04:24:29;;;;;;;18.67;10.75;;;77.50;2227.20;;;;;;5113379;27;20024;-75
2022/02/23 04:26:55;;;;;;;20.00;9.88;;;77.30;2227.20;;;;;;5113050;28;20110;-76
2022/02/23 04:29:21;;;;;;;30.88;11.32;;;77.20;2227.20;;;;;;5113252;28;20035;-75
2022/02/23 04:31:47;;;;;;;29.70;13.98;;;77.10;2227.20;;;;;;5112923;28;20020;-75
2022/02/23 04:34:13;;;;;;;27.48;16.65;;;77.20;2227.20;;;;;;5112992;28;20027;-75
2022/02/23 04:36:40;;;;;;;27.05;14.10;;;;;;;;;;5111912;28;20114;-76
2022/02/23 04:39:08;;;;;;;22.98;13.48;;;77.10;2227.20;;;;;;5113190;28;20051;-76
2022/02/23 04:41:34;;;;;;;24.95;11.18;;;76.90;2227.20;;;;;;5112948;28;20015;-75
2022/02/23 04:44:00;;;;;;;28.00;14.40;;;;;;;;;;5111521;28;20413;-75
2022/02/23 04:46:26;;;;;;;22.98;12.98;;;77.00;2227.20;;;;;;5113173;28;20027;-75
2022/02/23 04:48:51;;;;;;;20.80;10.98;;;76.90;2227.20;;;;;;5112506;28;20044;-75
2022/02/23 04:51:18;;;;;;;21.45;11.10;;;76.90;2227.20;;;;;;5112948;28;20030;-76
2022/02/23 04:53:44;;;;;;;17.88;10.23;;;;;;;;;;5112919;28;20053;-77
2022/02/23 04:56:11;;;;;;;20.08;9.25;;;;;;;;;;5113105;28;20763;-76
2022/02/23 04:58:36;;;;;;;16.65;6.80;;;52.00;2227.20;;;;;;5112402;28;20022;-75
2022/02/23 05:01:04;;;;;;;13.85;7.00;;;51.90;2227.20;;;;;;5103092;28;20114;-78
2022/02/23 05:03:31;;;;;;;14.48;6.72;;;51.90;2227.20;;;;;;5092405;28;20020;-75
2022/02/23 05:05:59;;;;;;;13.20;7.43;;;51.90;2227.20;;;;;;5091243;28;20031;-75
2022/02/23 05:08:27;;;;;;;22.75;8.70;;;51.90;2227.20;;;;;;5091600;28;20035;-75
2022/02/23 05:10:57;;;;;;;12.10;6.95;;;51.90;2227.20;;;;;;5124329;27;20024;-76
2022/02/23 05:13:29;;;;;;;16.77;8.13;;;51.80;2227.20;;;;;;5091780;28;20110;-76
2022/02/23 05:15:57;;;;;;;14.13;6.82;;;51.70;2227.20;;;;;;5093705;28;20063;-76
2022/02/23 05:18:27;;;;;;;18.05;7.15;;;51.70;2227.20;;;;;;5091671;28;20060;-82
2022/02/23 05:20:55;;;;;;;24.90;11.05;;;51.70;2227.20;;;;;;5092011;28;20047;-81
2022/02/23 05:23:22;;;;;;;25.60;11.27;;;51.60;2227.20;;;;;;5091992;28;20056;-77
2022/02/23 05:25:48;;;;;;;28.95;10.15;;;51.60;2227.20;;;;;;5091664;28;20022;-82
2022/02/23 05:28:13;;;;;;;18.25;9.82;;;51.70;2227.20;;;;;;5094210;28;20024;-83
2022/02/23 05:30:39;;;;;;;30.27;10.52;;;51.70;2227.20;;;;;;5095330;28;20030;-82
2022/02/23 05:33:05;;;;;;;20.98;7.10;;;51.70;2227.20;;;;;;5096658;28;20032;-82
2022/02/23 05:35:31;;;;;;;16.38;7.85;;;51.60;2227.20;;;;;;5091952;28;20028;-80
2022/02/23 05:37:57;;;;;;;19.45;8.73;;;51.60;2227.20;;;;;;5091432;28;20106;-80
2022/02/23 05:40:23;;;;;;;31.85;12.07;;;51.60;2227.20;;;;;;5090138;28;20368;-82
2022/02/23 05:42:49;;;;;;;39.22;17.40;;;51.70;2227.20;;;;;;5091580;28;20043;-79
2022/02/23 05:45:15;;;;;;;37.72;13.98;;;51.80;2227.20;;;;;;5090811;28;20054;-80
2022/02/23 05:47:41;;;;;;;26.77;12.35;;;51.70;2227.20;;;;;;5095517;28;20024;-79
2022/02/23 05:50:07;;;;;;;28.00;12.60;;;51.80;2227.20;;;;;;5091324;28;20072;-78
2022/02/23 05:52:33;;;;;;;37.20;14.43;;;51.80;2227.20;;;;;;5105227;28;20031;-85
2022/02/23 05:54:59;;;;;;;22.67;13.18;;;51.80;2227.20;;;;;;5097772;28;20024;-80
2022/02/23 05:57:24;;;;;;;29.10;12.10;;;51.80;2227.20;;;;;;5097742;28;20016;-81
2022/02/23 05:59:50;;;;;;;18.30;9.15;;;51.80;2227.20;;;;;;5096879;28;20020;-84
2022/02/23 06:02:16;;;;;;;29.27;13.90;;;51.80;2227.20;;;;;;5099170;28;20020;-84
2022/02/23 06:04:42;;;;;;;34.80;14.98;;;51.80;2227.20;;;;;;5095210;28;20027;-80
2022/02/23 06:07:08;;;;;;;27.65;15.57;;;51.90;2227.20;;;;;;5103003;28;20028;-78
2022/02/23 06:09:34;;;;;;;28.77;13.85;;;51.90;2227.20;;;;;;5099476;28;20028;-77
2022/02/23 06:12:01;;;;;;;19.38;11.63;;;51.90;2227.20;;;;;;5105057;28;20047;-79
2022/02/23 06:14:27;;;;;;;23.77;10.15;;;51.90;2227.20;;;;;;5108980;28;20089;-78
2022/02/23 06:16:53;;;;;;;20.70;8.20;;;51.90;2227.20;;;;;;5114504;28;20047;-78
2022/02/23 06:19:19;;;;;;;17.85;5.55;;;51.80;2227.20;;;;;;5111976;28;20031;-77
2022/02/23 06:21:45;;;;;;;15.75;8.48;;;51.70;2227.20;;;;;;5115162;28;20024;-78
2022/02/23 06:24:11;;;;;;;21.00;7.53;;;51.70;2227.20;;;;;;5115313;28;20030;-77
2022/02/23 06:26:37;;;;;;;14.02;6.88;;;51.80;2227.20;;;;;;5114330;28;20020;-77
2022/02/23 06:29:02;;;;;;;19.17;10.45;;;51.80;2227.20;;;;;;5108445;28;20032;-78
2022/02/23 06:31:28;;;;;;;22.02;8.35;;;51.90;2227.20;;;;;;5110378;28;20054;-78
2022/02/23 06:33:54;;;;;;;26.80;10.57;;;51.90;2227.20;;;;;;5103742;28;20055;-79
2022/02/23 06:36:20;;;;;;;42.40;15.63;;;52.00;2227.20;;;;;;5096287;28;20107;-77
2022/02/23 06:38:46;;;;;;;35.05;14.35;;;52.00;2227.20;;;;;;5106369;28;20053;-77
2022/02/23 06:41:15;;;;;;;44.90;20.10;;;52.00;2227.20;;;;;;5104309;28;20066;-86
2022/02/23 06:43:43;;;;;;;35.28;18.27;;;52.10;2227.20;;;;;;5107076;28;20054;-87
2022/02/23 06:46:10;;;;;;;27.13;12.15;;;76.80;2227.20;;;;;;5100753;28;20016;-91
2022/02/23 06:48:36;;;;;;;24.73;12.43;;;76.80;2227.20;;;;;;5140096;27;20027;-90
2022/02/23 06:51:03;;;;;;;33.15;13.70;;;76.80;2227.20;;;;;;5102275;28;20027;-87
2022/02/23 06:53:30;;;;;;;30.13;15.13;;;76.90;2227.20;;;;;;5101051;28;20024;-86
2022/02/23 06:55:56;;;;;;;31.60;12.95;;;77.10;2227.20;;;;;;5100952;28;20513;-89
2022/02/23 06:58:21;;;;;;;34.20;17.30;;;77.20;2227.20;;;;;;5107085;28;20054;-83
2022/02/23 07:00:47;;;;;;;30.73;16.38;;;77.30;2227.20;;;;;;5095045;28;20023;-86
2022/02/23 07:03:13;;;;;;;27.08;14.32;;;77.30;2227.20;;;;;;5109583;28;20408;-83
2022/02/23 07:05:39;;;;;;;26.67;11.45;;;77.30;2227.20;;;;;;5135915;27;20474;-85
2022/02/23 07:08:07;;;;;;;25.48;11.88;;;77.50;2227.20;;;;;;5144636;27;20040;-75
2022/02/23 07:10:34;;;;;;;24.88;12.25;;;77.60;2227.20;;;;;;5111022;28;20023;-78
2022/02/23 07:13:00;;;;;;;32.28;14.25;;;77.60;2227.20;;;;;;5101593;28;20035;-77
2022/02/23 07:15:27;;;;;;;24.30;8.95;;;77.60;2227.20;;;;;;5106046;28;20474;-84
2022/02/23 07:17:53;;;;;;;21.17;12.23;;;77.60;2227.20;;;;;;5112894;28;20051;-85
2022/02/23 07:20:21;;;;;;;23.10;8.45;;;77.70;2227.20;;;;;;5108711;28;20039;-83
2022/02/23 07:22:47;;;;;;;31.50;14.68;;;102.40;2227.20;;;;;;5114654;28;20026;-83
2022/02/23 07:25:13;;;;;;;27.05;14.60;;;102.50;2227.20;;;;;;5112695;28;20043;-78
2022/02/23 07:27:39;;;;;;;29.85;15.10;;;102.70;2227.20;;;;;;5109100;28;20055;-80
2022/02/23 07:30:08;;;;;;;40.58;18.75;;;102.80;2227.20;;;;;;5146814;27;20142;-80
2022/02/23 07:32:34;;;;;;;18.10;11.02;;;103.00;2227.20;;;;;;5108450;28;20032;-83
2022/02/23 07:35:01;;;;;;;26.27;13.23;;;103.00;2227.20;;;;;;5113605;28;20043;-82
2022/02/23 07:37:27;;;;;;;29.55;16.05;;;103.00;2227.20;;;;;;5113696;28;20094;-78
2022/02/23 07:39:59;;;;;;;27.45;15.18;;;103.20;2227.20;;;;;;5113739;28;20123;-83
2022/02/23 07:42:25;;;;;;;25.60;15.93;;;103.30;2227.20;;;;;;5113379;27;20069;-79
2022/02/23 07:44:51;;;;;;;24.42;14.93;;;128.00;2252.80;;;;;;5109383;28;20456;-78
2022/02/23 07:47:17;;;;;;;19.90;12.55;;;128.10;2252.80;;;;;;5113356;28;20049;-77
2022/02/23 07:49:49;;;;;;;17.02;7.65;;;128.20;2252.80;;;;;;5108821;28;20028;-78
2022/02/23 07:52:16;;;;;;;20.02;10.88;;;128.30;2252.80;;;;;;5105531;28;20093;-78
2022/02/23 07:54:42;;;;;;;15.38;6.68;;;128.40;2252.80;;;;;;5111708;28;20524;-77
2022/02/23 07:57:07;;;;;;;32.03;16.67;;;128.50;2252.80;;;;;;5111426;28;20020;-77
2022/02/23 07:59:33;;;;;;;33.75;18.70;;;128.70;2252.80;;;;;;5137532;27;20045;-79
2022/02/23 08:01:59;;;;;;;15.20;8.52;;;128.90;2252.80;;;;;;5092873;28;20020;-80
2022/02/23 08:04:25;;;;;;;26.73;14.32;;;128.80;2252.80;;;;;;5092758;28;20054;-84
2022/02/23 08:06:51;;;;;;;26.75;12.88;;;153.60;2252.80;;;;;;5092943;28;20424;-81
2022/02/23 08:09:17;;;;;;;19.75;9.27;;;153.60;2252.80;;;;;;5092886;28;20042;-81
2022/02/23 08:11:43;;;;;;;21.92;12.80;;;153.60;2252.80;;;;;;5093362;28;20016;-80
2022/02/23 08:14:10;;;;;;;13.23;7.18;;;153.60;2252.80;;;;;;5106129;28;20024;-80
2022/02/23 08:19:36;;;;;;;13.35;7.97;;;154.00;2201.60;;;;;;5092768;28;20081;-82
2022/02/23 08:22:14;;;;;;;15.88;9.07;;;154.10;2176.00;;;;;;5090940;28;20394;-79
2022/02/23 08:24:44;;;;;;;22.50;10.35;;;154.30;2022.40;;;;;;5092907;28;20051;-80
2022/02/23 08:27:12;;;;;;;24.15;11.38;;;154.50;2048.00;;;;;;5093142;28;20024;-81
2022/02/23 08:29:40;;;;;;;11.20;6.18;;;179.20;1945.60;;;;;;5093034;28;20039;-79
2022/02/23 08:32:08;;;;;;;13.10;7.18;;;179.30;1792.00;;;;;;5092604;28;20111;-78
2022/02/23 08:34:35;;;;;;;25.25;7.45;;;179.40;1843.20;;;;;;5092188;28;20046;-79
2022/02/23 08:37:01;;;;;;;12.35;6.45;;;179.70;1817.60;;;;;;5091956;28;20478;-82
2022/02/23 08:39:28;;;;;;;11.50;5.10;;;179.80;1766.40;;;;;;5090675;28;20020;-79
2022/02/23 08:41:53;;;;;;;12.75;4.95;;;179.70;1792.00;;;;;;5092432;28;20020;-79
2022/02/23 08:44:19;;;;;;;14.20;4.90;;;179.80;1689.60;;;;;;5091652;28;20050;-79
2022/02/23 08:46:45;;;;;;;20.73;9.35;;;179.90;1715.20;;;;;;5092826;28;20031;-79
2022/02/23 08:49:12;;;;;;;21.02;12.20;;;180.10;1740.80;;;;;;5092386;28;20032;-79
2022/02/23 08:51:41;;;;;;;19.48;10.52;;;179.90;1740.80;;;;;;5094441;28;20690;-78
2022/02/23 08:54:07;;;;;;;33.53;28.77;;;180.00;1715.20;;;;;;5092486;28;20016;-80
2022/02/23 08:56:33;;;;;;;10.73;6.25;;;204.80;1689.60;;;;;;5094680;28;20027;-77
2022/02/23 08:58:59;;;;;;;27.30;8.77;;;205.40;1612.80;;;;;;5090408;28;20416;-79
2022/02/23 09:01:29;;;;;;;13.68;3.95;;;205.60;1612.80;;;;;;5088612;28;20086;-79
2022/02/23 09:03:56;;;;;;;18.35;6.90;;;205.60;1536.00;;;;;;5092196;28;20040;-77
2022/02/23 09:06:23;;;;;;;8.18;4.07;;;205.60;1510.40;;;;;;5095629;28;20435;-78
2022/02/23 09:08:49;;;;;;;13.55;7.07;;;;;;;;;;5091334;28;20066;-79
2022/02/23 09:11:15;;;;;;;8.20;4.80;;;;;;;;;;5091498;28;20023;-78
2022/02/23 09:13:41;;;;;;;6.70;2.97;;;;;;;;;;5091259;28;20052;-78
2022/02/23 09:16:07;;;;;;;13.73;4.72;;;;;;;;;;5123919;27;20076;-79
2022/02/23 09:18:34;;;;;;;7.22;3.17;;;;;;;;;;5096578;28;20099;-79
2022/02/23 09:21:01;;;;;;;4.63;3.08;;;;;;;;;;5093962;28;20561;-80
2022/02/23 09:23:27;;;;;;;5.85;2.70;;;205.50;1510.40;;;;;;5091431;28;20024;-78
2022/02/23 09:25:54;;;;;;;11.68;3.40;;;205.30;1510.40;;;;;;5090565;28;20062;-80
2022/02/23 09:28:21;;;;;;;7.05;3.67;;;;;;;;;;5090540;28;20036;-79
2022/02/23 09:30:47;;;;;;;8.70;3.65;;;;;;;;;;5123931;27;20356;-78
2022/02/23 09:33:14;;;;;;;6.70;3.50;;;;;;;;;;5091420;28;20101;-79
2022/02/23 09:35:40;;;;;;;12.02;3.92;;;;;;;;;;5123591;27;20024;-78
2022/02/23 09:38:06;;;;;;;10.32;4.15;;;;;;;;;;5094122;28;20027;-79
2022/02/23 09:40:33;;;;;;;8.57;2.78;;;;;;;;;;5124018;27;20017;-78
2022/02/23 09:42:59;;;;;;;8.57;4.63;;;;;;;;;;5091483;28;20482;-80
2022/02/23 09:45:27;;;;;;;12.13;5.10;;;;;;;;;;5123252;27;20077;-79
2022/02/23 09:47:54;;;;;;;10.38;4.53;;;;;;;;;;5091106;28;20027;-77
2022/02/23 09:50:21;;;;;;;16.30;5.22;;;;;;;;;;5091386;28;20018;-78
2022/02/23 09:52:51;;;;;;;12.30;3.92;;;;;;;;;;5094053;28;20028;-77
2022/02/23 09:55:17;;;;;;;10.30;4.97;;;;;;;;;;5124018;27;20016;-78
2022/02/23 09:57:44;;;;;;;8.50;4.28;;;;;;;;;;5090819;28;20107;-78
2022/02/23 10:00:11;;;;;;;6.93;4.20;;;;;;;;;;5090782;28;20020;-79
2022/02/23 10:02:37;;;;;;;13.00;3.90;;;;;;;;;;5093261;28;20375;-79
2022/02/23 10:05:04;;;;;;;7.15;2.92;;;;;;;;;;5125905;27;20020;-78
2022/02/23 10:07:32;;;;;;;13.90;3.53;;;;;;;;;;5096292;28;20016;-78
2022/02/23 10:10:00;;;;;;;12.50;4.57;;;;;;;;;;5090639;28;20111;-80
2022/02/23 10:12:27;;;;;;;10.45;5.30;;;;;;;;;;5091606;28;20489;-77
2022/02/23 10:15:05;;;;;;;8.98;4.40;;;;;;;;;;5091565;28;20028;-78
2022/02/23 10:17:37;;;;;;;10.45;4.38;;;;;;;;;;5109687;28;20498;-79
2022/02/23 10:20:04;;;;;;;15.10;4.38;;;;;;;;;;5106730;28;20526;-79
2022/02/23 10:22:32;;;;;;;7.53;4.63;;;281.80;1331.20;;;;;;5090918;28;20020;-78
2022/02/23 10:24:59;;;;;;;19.83;6.90;;;282.10;1305.60;;;;;;5090722;28;20020;-81
2022/02/23 10:27:31;;;;;;;22.02;5.70;;;282.40;1280.00;;;;;;5090445;28;20425;-78
2022/02/23 10:29:57;;;;;;;9.95;5.13;;;282.20;1305.60;;;;;;5090617;28;20062;-78
2022/02/23 10:32:24;;;;;;;10.63;4.40;;;307.20;1280.00;;;;;;5090456;28;20020;-78
2022/02/23 10:34:52;;;;;;;10.07;5.70;;;;;;;;;;5091707;28;20051;-76
2022/02/23 10:37:19;;;;;;;8.30;4.28;;;;;;;;;;5090296;28;20169;-78
2022/02/23 10:39:46;;;;;;;8.93;4.50;;;;;;;;;;5093984;28;20062;-78
2022/02/23 10:42:16;;;;;;;10.15;4.70;;;;;;;;;;5095615;28;20026;-77
2022/02/23 10:44:44;;;;;;;11.10;5.18;;;;;;;;;;5093782;28;20016;-79
2022/02/23 10:47:32;;;;;;;11.18;3.25;;;;;;;;;;5127645;27;20020;-75
2022/02/23 10:50:04;;;;;;;7.75;3.92;;;;;;;;;;5094197;28;20861;-77
2022/02/23 10:52:31;;;;;;;16.67;7.38;;;;;;;;;;5094451;28;20024;-78
2022/02/23 10:55:16;;;;;;;13.77;5.60;;;;;;;;;;5095296;28;20024;-78
2022/02/23 10:57:43;;;;;;;9.18;4.78;;;;;;;;;;5094207;28;20027;-77
2022/02/23 11:00:13;;;;;;;13.00;5.78;;;;;;;;;;5093519;28;20482;-78
2022/02/23 11:02:39;;;;;;;14.88;5.07;;;;;;;;;;5127449;27;20020;-78
2022/02/23 11:05:06;;;;;;;8.32;4.00;;;;;;;;;;5096308;28;20020;-78
2022/02/23 11:07:32;;;;;;;8.38;4.10;;;;;;;;;;5094130;28;20028;-79
2022/02/23 11:09:58;;;;;;;8.18;2.80;;;;;;;;;;5096519;28;20036;-77
2022/02/23 11:12:24;;;;;;;10.15;5.25;;;;;;;;;;5093566;28;20021;-77
2022/02/23 11:14:50;;;;;;;7.43;3.70;;;;;;;;;;5093581;28;20020;-79
2022/02/23 11:17:17;;;;;;;10.07;4.30;;;;;;;;;;5096427;28;20047;-79
2022/02/23 11:19:45;;;;;;;12.13;4.20;;;;;;;;;;5126375;27;20020;-76
2022/02/23 11:22:11;;;;;;;6.85;2.47;;;;;;;;;;5100965;28;20015;-78
2022/02/23 11:24:39;;;;;;;7.35;2.55;;;;;;;;;;5096553;27;20081;-78
2022/02/23 11:27:07;;;;;;;12.70;5.45;;;;;;;;;;5093408;28;20020;-77
2022/02/23 11:29:52;;;;;;;10.52;4.38;;;;;;;;;;5126066;27;20032;-79
2022/02/23 11:32:30;;;;;;;5.47;2.63;;;;;;;;;;5093193;28;20157;-77
2022/02/23 11:34:56;;;;;;;9.35;2.80;;;;;;;;;;5092977;28;20028;-76
2022/02/23 11:37:22;;;;;;;10.27;3.90;;;;;;;;;;5092944;28;20012;-76
2022/02/23 11:39:51;;;;;;;7.20;2.83;;;;;;;;;;5125622;27;20048;-78
2022/02/23 11:42:21;;;;;;;9.07;2.67;;;;;;;;;;5095788;28;20417;-77
2022/02/23 11:44:50;;;;;;;5.93;2.78;;;;;;;;;;5093228;28;20024;-77
2022/02/23 11:47:21;;;;;;;10.75;4.30;;;;;;;;;;5128403;27;20027;-77
2022/02/23 11:49:54;;;;;;;16.20;7.53;;;;;;;;;;5110719;27;20024;-77
2022/02/23 11:52:22;;;;;;;10.70;5.85;;;;;;;;;;5125719;27;20020;-77
2022/02/23 11:54:48;;;;;;;6.22;2.72;;;;;;;;;;5125462;27;20081;-79
2022/02/23 11:57:34;;;;;;;13.95;3.88;;;;;;;;;;5092759;28;20051;-77
2022/02/23 12:00:00;;;;;;;11.52;3.97;;;;;;;;;;5098862;28;20024;-77
2022/02/23 12:02:30;;;;;;;12.60;3.55;;;;;;;;;;5127314;27;20047;-77
2022/02/23 12:04:59;;;;;;;18.08;6.88;;;;;;;;;;5092656;28;20483;-78
2022/02/23 12:07:26;;;;;;;8.77;3.33;;;;;;;;;;5092662;28;20035;-78
2022/02/23 12:09:52;;;;;;;15.93;5.75;;;;;;;;;;5094688;28;20410;-77
2022/02/23 12:12:33;;;;;;;13.77;5.78;;;;;;;;;;5092436;28;20024;-79
2022/02/23 12:15:03;;;;;;;7.88;3.53;;;;;;;;;;5092030;28;20047;-77
2022/02/23 12:17:48;;;;;;;10.95;4.38;;;;;;;;;;5091796;28;20036;-77
2022/02/23 12:20:32;;;;;;;8.13;4.80;;;;;;;;;;5091791;28;20556;-76
2022/02/23 12:23:06;;;;;;;13.57;7.00;;;;;;;;;;5093753;28;20021;-79
2022/02/23 12:25:47;;;;;;;5.35;3.15;;;;;;;;;;5107656;28;20099;-75
2022/02/23 12:28:21;;;;;;;14.73;5.75;;;;;;;;;;5092156;28;20538;-76
2022/02/23 12:30:52;;;;;;;14.27;6.65;;;;;;;;;;5091809;28;20475;-76
2022/02/23 12:33:18;;;;;;;12.90;5.20;;;;;;;;;;5094538;28;20016;-77
2022/02/23 12:35:46;;;;;;;11.55;5.32;;;;;;;;;;5092027;28;20051;-77
2022/02/23 12:38:12;;;;;;;8.10;4.05;;;;;;;;;;5124569;27;20016;-77
2022/02/23 12:40:39;;;;;;;6.35;3.78;;;;;;;;;;5094652;28;20085;-78
2022/02/23 12:43:06;;;;;;;6.00;3.95;;;;;;;;;;5092439;28;20049;-76
2022/02/23 12:45:32;;;;;;;12.05;3.72;;;;;;;;;;5094738;28;20058;-79
2022/02/23 12:48:01;;;;;;;5.32;3.00;;;;;;;;;;5091774;28;20020;-79
2022/02/23 12:50:31;;;;;;;12.80;6.20;;;;;;;;;;5092888;28;20023;-78
2022/02/23 12:52:57;;;;;;;15.10;7.05;;;;;;;;;;5091062;28;20052;-77
2022/02/23 12:55:23;;;;;;;15.10;6.53;;;;;;;;;;5091646;28;20087;-79
2022/02/23 12:57:52;;;;;;;9.05;4.85;;;;;;;;;;5091840;28;20146;-78
2022/02/23 13:00:36;;;;;;;12.50;4.70;;;;;;;;;;5124593;27;20023;-79
2022/02/23 13:03:02;;;;;;;;;;;;;;;;;;5089852;28;20097;-78
2022/02/23 13:05:28;;;;;;;13.60;6.00;;;;;;;;;;5091454;28;19912;-77
2022/02/23 13:07:54;;;;;;;13.10;5.60;;;;;;;;;;5124218;27;20429;-79
2022/02/23 13:10:20;;;;;;;9.38;4.93;;;;;;;;;;5094624;28;20087;-78
2022/02/23 13:12:48;;;;;;;10.55;4.88;;;;;;;;;;5093961;28;20321;-81
2022/02/23 13:15:14;;;;;;;7.18;3.80;;;;;;;;;;5091451;28;20082;-80
2022/02/23 13:17:40;;;;;;;21.30;6.63;;;;;;;;;;5091189;28;20051;-80
2022/02/23 13:20:07;;;;;;;23.63;5.18;;;;;;;;;;5097318;28;20475;-79
2022/02/23 13:22:33;;;;;;;21.98;8.48;;;;;;;;;;5091067;28;20429;-80
2022/02/23 13:25:00;;;;;;;15.18;6.28;;;;;;;;;;5124553;27;20476;-79
2022/02/23 13:27:27;;;;;;;15.50;6.88;;;;;;;;;;5091619;28;20020;-80
2022/02/23 13:29:57;;;;;;;16.55;8.85;;;;;;;;;;5088978;28;20047;-82
2022/02/23 13:32:37;;;;;;;25.25;11.80;;;;;;;;;;5092851;28;20013;-82
2022/02/23 13:35:09;;;;;;;16.10;6.35;;;;;;;;;;5092827;28;20021;-78